sensor_id;sensor_type;location;lat;lon;timestamp;pressure;altitude;pressure_sealevel;temperature;humidity
52927;BME280;40783;49.710;8.842;2023-09-08T00:02:12;99316.72;;;17.75;87.95
52927;BME280;40783;49.710;8.842;2023-09-08T00:04:37;99313.63;;;17.78;87.61
52927;BME280;40783;49.710;8.842;2023-09-08T00:07:06;99312.34;;;17.74;87.78
52927;BME280;40783;49.710;8.842;2023-09-08T00:09:32;99319.03;;;17.71;87.53
52927;BME280;40783;49.710;8.842;2023-09-08T00:11:57;99316.44;;;17.56;89.26
52927;BME280;40783;49.710;8.842;2023-09-08T00:14:22;99316.25;;;17.64;88.67
52927;BME280;40783;49.710;8.842;2023-09-08T00:16:47;99315.22;;;17.65;88.16
52927;BME280;40783;49.710;8.842;2023-09-08T00:19:16;99316.50;;;17.70;87.11
52927;BME280;40783;49.710;8.842;2023-09-08T00:21:46;99310.78;;;17.51;88.94
52927;BME280;40783;49.710;8.842;2023-09-08T00:24:11;99314.72;;;17.42;89.29
52927;BME280;40783;49.710;8.842;2023-09-08T00:26:37;99302.25;;;17.47;88.77
52927;BME280;40783;49.710;8.842;2023-09-08T00:29:02;99301.88;;;17.57;87.47
52927;BME280;40783;49.710;8.842;2023-09-08T00:31:27;99301.00;;;17.50;88.43
52927;BME280;40783;49.710;8.842;2023-09-08T00:33:53;99297.50;;;17.56;87.49
52927;BME280;40783;49.710;8.842;2023-09-08T00:36:18;99300.94;;;17.37;89.50
52927;BME280;40783;49.710;8.842;2023-09-08T00:38:44;99296.81;;;17.41;88.66
52927;BME280;40783;49.710;8.842;2023-09-08T00:41:09;99298.09;;;17.45;89.14
52927;BME280;40783;49.710;8.842;2023-09-08T00:43:36;99305.56;;;17.43;88.14
52927;BME280;40783;49.710;8.842;2023-09-08T00:46:04;99306.84;;;17.47;88.14
52927;BME280;40783;49.710;8.842;2023-09-08T00:48:29;99301.81;;;17.44;89.02
52927;BME280;40783;49.710;8.842;2023-09-08T00:50:55;99299.31;;;17.42;88.07
52927;BME280;40783;49.710;8.842;2023-09-08T00:53:20;99299.97;;;17.16;90.38
52927;BME280;40783;49.710;8.842;2023-09-08T00:55:46;99300.88;;;17.23;89.54
52927;BME280;40783;49.710;8.842;2023-09-08T00:58:11;99303.53;;;17.16;91.10
52927;BME280;40783;49.710;8.842;2023-09-08T01:00:39;99300.63;;;17.18;89.67
52927;BME280;40783;49.710;8.842;2023-09-08T01:03:04;99294.38;;;17.17;90.13
52927;BME280;40783;49.710;8.842;2023-09-08T01:05:32;99295.47;;;17.23;89.06
52927;BME280;40783;49.710;8.842;2023-09-08T01:07:59;99298.22;;;17.01;90.59
52927;BME280;40783;49.710;8.842;2023-09-08T01:10:27;99300.16;;;16.86;92.70
52927;BME280;40783;49.710;8.842;2023-09-08T01:12:53;99297.38;;;17.01;90.47
52927;BME280;40783;49.710;8.842;2023-09-08T01:15:20;99300.66;;;16.96;91.20
52927;BME280;40783;49.710;8.842;2023-09-08T01:17:45;99296.44;;;16.87;91.95
52927;BME280;40783;49.710;8.842;2023-09-08T01:20:16;99304.66;;;16.79;92.78
52927;BME280;40783;49.710;8.842;2023-09-08T01:25:12;99304.78;;;16.92;90.84
52927;BME280;40783;49.710;8.842;2023-09-08T01:27:41;99299.38;;;16.92;90.69
52927;BME280;40783;49.710;8.842;2023-09-08T01:30:11;99305.56;;;16.86;91.97
52927;BME280;40783;49.710;8.842;2023-09-08T01:32:38;99309.78;;;16.95;90.35
52927;BME280;40783;49.710;8.842;2023-09-08T01:35:04;99304.41;;;16.95;90.36
52927;BME280;40783;49.710;8.842;2023-09-08T01:37:31;99305.41;;;16.94;90.78
52927;BME280;40783;49.710;8.842;2023-09-08T01:39:57;99306.25;;;16.95;90.17
52927;BME280;40783;49.710;8.842;2023-09-08T01:42:22;99303.44;;;16.81;90.81
52927;BME280;40783;49.710;8.842;2023-09-08T01:44:47;99299.28;;;16.79;90.40
52927;BME280;40783;49.710;8.842;2023-09-08T01:47:12;99301.16;;;16.56;92.90
52927;BME280;40783;49.710;8.842;2023-09-08T01:49:37;99293.75;;;16.65;91.21
52927;BME280;40783;49.710;8.842;2023-09-08T01:52:05;99294.66;;;16.72;90.84
52927;BME280;40783;49.710;8.842;2023-09-08T01:54:32;99296.75;;;16.77;90.00
52927;BME280;40783;49.710;8.842;2023-09-08T01:56:58;99299.28;;;16.57;91.29
52927;BME280;40783;49.710;8.842;2023-09-08T01:59:23;99300.59;;;16.39;93.79
52927;BME280;40783;49.710;8.842;2023-09-08T02:01:50;99300.31;;;16.56;91.39
52927;BME280;40783;49.710;8.842;2023-09-08T02:04:17;99290.78;;;16.60;91.06
52927;BME280;40783;49.710;8.842;2023-09-08T02:06:45;99304.41;;;16.52;92.32
52927;BME280;40783;49.710;8.842;2023-09-08T02:09:11;99299.91;;;16.59;90.79
52927;BME280;40783;49.710;8.842;2023-09-08T02:11:39;99296.34;;;16.30;93.33
52927;BME280;40783;49.710;8.842;2023-09-08T02:14:07;99295.97;;;16.33;92.60
52927;BME280;40783;49.710;8.842;2023-09-08T02:16:32;99303.16;;;16.26;93.82
52927;BME280;40783;49.710;8.842;2023-09-08T02:18:57;99294.72;;;16.36;92.32
52927;BME280;40783;49.710;8.842;2023-09-08T02:21:22;99294.94;;;16.34;92.26
52927;BME280;40783;49.710;8.842;2023-09-08T02:23:47;99296.88;;;16.40;91.80
52927;BME280;40783;49.710;8.842;2023-09-08T02:26:12;99286.63;;;16.36;91.57
52927;BME280;40783;49.710;8.842;2023-09-08T02:28:40;99295.19;;;16.39;91.46
52927;BME280;40783;49.710;8.842;2023-09-08T02:31:05;99296.44;;;16.43;91.16
52927;BME280;40783;49.710;8.842;2023-09-08T02:33:31;99285.16;;;16.33;91.04
52927;BME280;40783;49.710;8.842;2023-09-08T02:36:00;99285.03;;;16.41;90.88
52927;BME280;40783;49.710;8.842;2023-09-08T02:38:26;99277.84;;;16.27;91.87
52927;BME280;40783;49.710;8.842;2023-09-08T02:40:51;99278.22;;;16.24;91.16
52927;BME280;40783;49.710;8.842;2023-09-08T02:43:16;99279.19;;;16.16;91.96
52927;BME280;40783;49.710;8.842;2023-09-08T02:45:43;99284.06;;;16.06;92.79
52927;BME280;40783;49.710;8.842;2023-09-08T02:48:09;99283.97;;;15.99;92.99
52927;BME280;40783;49.710;8.842;2023-09-08T02:50:36;99283.47;;;16.10;92.40
52927;BME280;40783;49.710;8.842;2023-09-08T02:53:04;99281.78;;;16.09;92.48
52927;BME280;40783;49.710;8.842;2023-09-08T02:55:29;99281.41;;;16.12;91.96
52927;BME280;40783;49.710;8.842;2023-09-08T02:57:55;99280.78;;;16.10;92.06
52927;BME280;40783;49.710;8.842;2023-09-08T03:00:24;99287.78;;;16.05;92.07
52927;BME280;40783;49.710;8.842;2023-09-08T03:02:49;99288.22;;;16.08;91.70
52927;BME280;40783;49.710;8.842;2023-09-08T03:05:14;99275.00;;;16.13;91.37
52927;BME280;40783;49.710;8.842;2023-09-08T03:07:40;99290.91;;;16.08;91.16
52927;BME280;40783;49.710;8.842;2023-09-08T03:10:07;99285.06;;;16.05;91.80
52927;BME280;40783;49.710;8.842;2023-09-08T03:12:32;99274.84;;;16.00;91.67
52927;BME280;40783;49.710;8.842;2023-09-08T03:14:57;99280.34;;;15.77;93.68
52927;BME280;40783;49.710;8.842;2023-09-08T03:17:23;99276.38;;;15.87;93.23
52927;BME280;40783;49.710;8.842;2023-09-08T03:19:48;99281.00;;;15.94;92.04
52927;BME280;40783;49.710;8.842;2023-09-08T03:22:13;99275.69;;;16.00;92.28
52927;BME280;40783;49.710;8.842;2023-09-08T03:24:40;99276.91;;;15.98;91.93
52927;BME280;40783;49.710;8.842;2023-09-08T03:27:06;99282.94;;;16.00;91.34
52927;BME280;40783;49.710;8.842;2023-09-08T03:29:33;99288.44;;;15.92;92.43
52927;BME280;40783;49.710;8.842;2023-09-08T03:31:58;99279.59;;;15.83;92.92
52927;BME280;40783;49.710;8.842;2023-09-08T03:34:23;99277.69;;;15.62;94.05
52927;BME280;40783;49.710;8.842;2023-09-08T03:36:53;99288.66;;;15.75;93.19
52927;BME280;40783;49.710;8.842;2023-09-08T03:39:20;99281.97;;;15.71;93.43
52927;BME280;40783;49.710;8.842;2023-09-08T03:41:45;99290.16;;;15.63;93.71
52927;BME280;40783;49.710;8.842;2023-09-08T03:44:11;99294.25;;;15.58;94.31
52927;BME280;40783;49.710;8.842;2023-09-08T03:46:36;99281.84;;;15.64;93.90
52927;BME280;40783;49.710;8.842;2023-09-08T03:49:01;99291.63;;;15.50;94.19
52927;BME280;40783;49.710;8.842;2023-09-08T03:51:27;99289.22;;;15.55;93.80
52927;BME280;40783;49.710;8.842;2023-09-08T03:53:55;99282.81;;;15.41;95.40
52927;BME280;40783;49.710;8.842;2023-09-08T03:56:20;99291.34;;;15.45;95.43
52927;BME280;40783;49.710;8.842;2023-09-08T03:58:48;99299.44;;;15.45;95.06
52927;BME280;40783;49.710;8.842;2023-09-08T04:01:16;99287.72;;;15.38;95.76
52927;BME280;40783;49.710;8.842;2023-09-08T04:03:41;99283.00;;;15.55;94.58
52927;BME280;40783;49.710;8.842;2023-09-08T04:06:06;99289.13;;;15.64;93.06
52927;BME280;40783;49.710;8.842;2023-09-08T04:08:36;99284.66;;;15.41;95.30
52927;BME280;40783;49.710;8.842;2023-09-08T04:11:01;99283.19;;;15.53;93.91
52927;BME280;40783;49.710;8.842;2023-09-08T04:13:27;99287.91;;;15.51;94.35
52927;BME280;40783;49.710;8.842;2023-09-08T04:15:52;99296.84;;;15.37;95.57
52927;BME280;40783;49.710;8.842;2023-09-08T04:18:19;99296.84;;;15.37;98.55
52927;BME280;40783;49.710;8.842;2023-09-08T04:20:45;99290.91;;;15.26;98.60
52927;BME280;40783;49.710;8.842;2023-09-08T04:23:12;99295.94;;;15.30;97.03
52927;BME280;40783;49.710;8.842;2023-09-08T04:25:40;99303.91;;;15.38;95.97
52927;BME280;40783;49.710;8.842;2023-09-08T04:28:05;99294.78;;;15.39;95.75
52927;BME280;40783;49.710;8.842;2023-09-08T04:30:31;99302.78;;;15.47;94.65
52927;BME280;40783;49.710;8.842;2023-09-08T04:32:56;99303.28;;;15.36;95.54
52927;BME280;40783;49.710;8.842;2023-09-08T04:35:21;99304.09;;;15.51;93.84
52927;BME280;40783;49.710;8.842;2023-09-08T04:37:49;99313.19;;;15.50;94.66
52927;BME280;40783;49.710;8.842;2023-09-08T04:40:16;99305.75;;;15.52;94.14
52927;BME280;40783;49.710;8.842;2023-09-08T04:42:44;99309.19;;;15.46;94.75
52927;BME280;40783;49.710;8.842;2023-09-08T04:45:09;99307.81;;;15.50;95.23
52927;BME280;40783;49.710;8.842;2023-09-08T04:47:35;99313.00;;;15.37;94.96
52927;BME280;40783;49.710;8.842;2023-09-08T04:50:00;99308.56;;;15.44;94.76
52927;BME280;40783;49.710;8.842;2023-09-08T04:52:28;99321.00;;;15.45;94.44
52927;BME280;40783;49.710;8.842;2023-09-08T04:54:56;99318.03;;;15.40;94.81
52927;BME280;40783;49.710;8.842;2023-09-08T04:57:21;99318.13;;;15.47;94.83
52927;BME280;40783;49.710;8.842;2023-09-08T04:59:46;99318.59;;;15.50;94.56
52927;BME280;40783;49.710;8.842;2023-09-08T05:02:11;99329.00;;;15.53;93.75
52927;BME280;40783;49.710;8.842;2023-09-08T05:04:40;99318.88;;;15.55;93.83
52927;BME280;40783;49.710;8.842;2023-09-08T05:07:05;99323.16;;;15.50;93.64
52927;BME280;40783;49.710;8.842;2023-09-08T05:09:30;99328.19;;;15.53;93.44
52927;BME280;40783;49.710;8.842;2023-09-08T05:11:58;99323.31;;;15.48;93.67
52927;BME280;40783;49.710;8.842;2023-09-08T05:14:25;99319.97;;;15.46;93.89
52927;BME280;40783;49.710;8.842;2023-09-08T05:16:50;99331.41;;;15.48;93.93
52927;BME280;40783;49.710;8.842;2023-09-08T05:19:20;99336.06;;;15.54;93.14
52927;BME280;40783;49.710;8.842;2023-09-08T05:21:45;99328.63;;;15.56;93.39
52927;BME280;40783;49.710;8.842;2023-09-08T05:24:11;99326.22;;;15.62;93.44
52927;BME280;40783;49.710;8.842;2023-09-08T05:26:37;99336.63;;;15.65;93.42
52927;BME280;40783;49.710;8.842;2023-09-08T05:29:05;99333.66;;;15.60;94.50
52927;BME280;40783;49.710;8.842;2023-09-08T05:31:30;99336.19;;;15.61;93.75
52927;BME280;40783;49.710;8.842;2023-09-08T05:33:56;99331.59;;;15.62;94.10
52927;BME280;40783;49.710;8.842;2023-09-08T05:36:23;99332.91;;;15.66;93.76
52927;BME280;40783;49.710;8.842;2023-09-08T05:38:53;99338.28;;;15.66;94.49
52927;BME280;40783;49.710;8.842;2023-09-08T05:41:18;99337.06;;;15.68;94.82
52927;BME280;40783;49.710;8.842;2023-09-08T05:43:44;99334.84;;;15.72;94.57
52927;BME280;40783;49.710;8.842;2023-09-08T05:46:09;99344.63;;;15.73;94.40
52927;BME280;40783;49.710;8.842;2023-09-08T05:48:34;99349.63;;;15.76;95.14
52927;BME280;40783;49.710;8.842;2023-09-08T05:50:59;99350.94;;;15.80;96.74
52927;BME280;40783;49.710;8.842;2023-09-08T05:53:27;99343.50;;;15.82;96.88
52927;BME280;40783;49.710;8.842;2023-09-08T05:55:53;99345.81;;;15.85;95.80
52927;BME280;40783;49.710;8.842;2023-09-08T05:58:18;99351.91;;;15.87;96.77
52927;BME280;40783;49.710;8.842;2023-09-08T06:00:45;99347.41;;;15.95;95.41
52927;BME280;40783;49.710;8.842;2023-09-08T06:03:11;99347.94;;;16.05;96.26
52927;BME280;40783;49.710;8.842;2023-09-08T06:05:36;99353.22;;;16.13;97.17
52927;BME280;40783;49.710;8.842;2023-09-08T06:08:01;99353.06;;;16.15;95.49
52927;BME280;40783;49.710;8.842;2023-09-08T06:10:26;99350.53;;;16.13;95.67
52927;BME280;40783;49.710;8.842;2023-09-08T06:12:52;99344.69;;;16.10;96.65
52927;BME280;40783;49.710;8.842;2023-09-08T06:18:39;99348.84;;;16.12;96.59
52927;BME280;40783;49.710;8.842;2023-09-08T06:21:13;99344.75;;;16.16;97.29
52927;BME280;40783;49.710;8.842;2023-09-08T06:23:38;99346.44;;;16.17;96.74
52927;BME280;40783;49.710;8.842;2023-09-08T06:26:03;99349.50;;;16.14;100.00
52927;BME280;40783;49.710;8.842;2023-09-08T06:28:28;99344.38;;;16.20;100.00
52927;BME280;40783;49.710;8.842;2023-09-08T06:30:54;99344.06;;;16.29;99.55
52927;BME280;40783;49.710;8.842;2023-09-08T06:33:19;99352.50;;;16.41;99.71
52927;BME280;40783;49.710;8.842;2023-09-08T06:35:45;99343.88;;;16.53;100.00
52927;BME280;40783;49.710;8.842;2023-09-08T06:38:11;99345.63;;;16.60;97.86
52927;BME280;40783;49.710;8.842;2023-09-08T06:40:38;99348.69;;;16.79;100.00
52927;BME280;40783;49.710;8.842;2023-09-08T06:43:03;99336.94;;;16.87;100.00
52927;BME280;40783;49.710;8.842;2023-09-08T06:45:31;99331.47;;;17.02;100.00
52927;BME280;40783;49.710;8.842;2023-09-08T06:47:59;99345.41;;;17.05;100.00
52927;BME280;40783;49.710;8.842;2023-09-08T06:50:26;99342.03;;;17.25;100.00
52927;BME280;40783;49.710;8.842;2023-09-08T06:52:52;99340.88;;;17.41;100.00
52927;BME280;40783;49.710;8.842;2023-09-08T06:55:17;99343.28;;;17.58;100.00
52927;BME280;40783;49.710;8.842;2023-09-08T06:57:45;99342.75;;;17.76;100.00
52927;BME280;40783;49.710;8.842;2023-09-08T07:00:10;99346.56;;;17.88;100.00
52927;BME280;40783;49.710;8.842;2023-09-08T07:02:36;99340.16;;;18.03;100.00
52927;BME280;40783;49.710;8.842;2023-09-08T07:05:04;99343.78;;;18.23;100.00
52927;BME280;40783;49.710;8.842;2023-09-08T07:07:33;99343.44;;;18.40;100.00
52927;BME280;40783;49.710;8.842;2023-09-08T07:09:58;99341.78;;;18.52;100.00
52927;BME280;40783;49.710;8.842;2023-09-08T07:12:23;99345.13;;;18.68;100.00
52927;BME280;40783;49.710;8.842;2023-09-08T07:14:53;99334.72;;;18.85;100.00
52927;BME280;40783;49.710;8.842;2023-09-08T07:17:18;99343.53;;;19.07;100.00
52927;BME280;40783;49.710;8.842;2023-09-08T07:19:43;99349.75;;;19.28;100.00
52927;BME280;40783;49.710;8.842;2023-09-08T07:22:11;99340.94;;;19.46;100.00
52927;BME280;40783;49.710;8.842;2023-09-08T07:24:38;99337.75;;;19.69;100.00
52927;BME280;40783;49.710;8.842;2023-09-08T07:27:03;99330.41;;;19.90;100.00
52927;BME280;40783;49.710;8.842;2023-09-08T07:29:28;99326.16;;;20.08;100.00
52927;BME280;40783;49.710;8.842;2023-09-08T07:31:54;99316.09;;;20.15;97.00
52927;BME280;40783;49.710;8.842;2023-09-08T07:34:19;99322.31;;;20.22;94.64
52927;BME280;40783;49.710;8.842;2023-09-08T07:36:47;99329.59;;;20.28;92.92
52927;BME280;40783;49.710;8.842;2023-09-08T07:39:12;99326.25;;;20.26;95.63
52927;BME280;40783;49.710;8.842;2023-09-08T07:41:37;99331.13;;;20.17;94.66
52927;BME280;40783;49.710;8.842;2023-09-08T07:44:05;99331.94;;;20.25;92.14
52927;BME280;40783;49.710;8.842;2023-09-08T07:46:30;99321.44;;;20.28;93.01
52927;BME280;40783;49.710;8.842;2023-09-08T07:49:01;99324.78;;;20.30;95.22
52927;BME280;40783;49.710;8.842;2023-09-08T07:51:26;99319.78;;;20.27;91.23
52927;BME280;40783;49.710;8.842;2023-09-08T07:53:52;99328.47;;;20.43;88.59
52927;BME280;40783;49.710;8.842;2023-09-08T07:56:17;99323.59;;;20.52;88.60
52927;BME280;40783;49.710;8.842;2023-09-08T07:58:43;99320.25;;;20.56;91.50
52927;BME280;40783;49.710;8.842;2023-09-08T08:01:12;99314.06;;;20.68;89.48
52927;BME280;40783;49.710;8.842;2023-09-08T08:03:42;99318.56;;;20.55;88.85
52927;BME280;40783;49.710;8.842;2023-09-08T08:06:07;99322.53;;;20.53;89.93
52927;BME280;40783;49.710;8.842;2023-09-08T08:08:35;99316.28;;;20.52;91.51
52927;BME280;40783;49.710;8.842;2023-09-08T08:11:08;99318.78;;;20.54;89.04
52927;BME280;40783;49.710;8.842;2023-09-08T08:13:35;99321.66;;;20.66;91.89
52927;BME280;40783;49.710;8.842;2023-09-08T08:16:01;99315.75;;;20.69;91.60
52927;BME280;40783;49.710;8.842;2023-09-08T08:18:26;99318.63;;;20.81;89.41
52927;BME280;40783;49.710;8.842;2023-09-08T08:20:51;99311.47;;;20.86;88.04
52927;BME280;40783;49.710;8.842;2023-09-08T08:23:16;99317.94;;;20.85;88.64
52927;BME280;40783;49.710;8.842;2023-09-08T08:25:43;99321.09;;;20.82;86.20
52927;BME280;40783;49.710;8.842;2023-09-08T08:28:09;99315.56;;;20.96;87.85
52927;BME280;40783;49.710;8.842;2023-09-08T08:30:34;99317.56;;;21.07;85.68
52927;BME280;40783;49.710;8.842;2023-09-08T08:33:02;99315.31;;;21.23;87.38
52927;BME280;40783;49.710;8.842;2023-09-08T08:35:29;99317.41;;;21.20;83.30
52927;BME280;40783;49.710;8.842;2023-09-08T08:37:54;99314.94;;;21.19;86.28
52927;BME280;40783;49.710;8.842;2023-09-08T08:40:19;99309.50;;;21.19;85.38
52927;BME280;40783;49.710;8.842;2023-09-08T08:42:45;99312.97;;;21.26;87.91
52927;BME280;40783;49.710;8.842;2023-09-08T08:45:10;99314.81;;;21.32;84.70
52927;BME280;40783;49.710;8.842;2023-09-08T08:47:36;99308.47;;;21.39;84.55
52927;BME280;40783;49.710;8.842;2023-09-08T08:50:02;99300.47;;;21.44;86.84
52927;BME280;40783;49.710;8.842;2023-09-08T08:52:28;99307.94;;;21.48;88.58
52927;BME280;40783;49.710;8.842;2023-09-08T08:54:54;99309.50;;;21.63;89.91
52927;BME280;40783;49.710;8.842;2023-09-08T08:57:21;99300.22;;;21.83;84.89
52927;BME280;40783;49.710;8.842;2023-09-08T08:59:47;99297.50;;;21.83;84.16
52927;BME280;40783;49.710;8.842;2023-09-08T09:02:16;99311.22;;;21.94;80.46
52927;BME280;40783;49.710;8.842;2023-09-08T09:04:41;99302.66;;;21.91;82.45
52927;BME280;40783;49.710;8.842;2023-09-08T09:07:07;99298.25;;;21.90;82.40
52927;BME280;40783;49.710;8.842;2023-09-08T09:09:32;99298.84;;;22.11;79.25
52927;BME280;40783;49.710;8.842;2023-09-08T09:11:57;99299.94;;;22.21;77.69
52927;BME280;40783;49.710;8.842;2023-09-08T09:14:27;99296.50;;;22.26;77.34
52927;BME280;40783;49.710;8.842;2023-09-08T09:16:55;99295.44;;;22.27;79.91
52927;BME280;40783;49.710;8.842;2023-09-08T09:19:23;99298.16;;;22.27;77.93
52927;BME280;40783;49.710;8.842;2023-09-08T09:21:56;99301.16;;;22.37;77.92
52927;BME280;40783;49.710;8.842;2023-09-08T09:24:32;99307.06;;;22.53;75.40
52927;BME280;40783;49.710;8.842;2023-09-08T09:26:59;99304.06;;;22.55;76.65
52927;BME280;40783;49.710;8.842;2023-09-08T09:29:24;99306.13;;;22.59;77.53
52927;BME280;40783;49.710;8.842;2023-09-08T09:31:51;99291.31;;;22.67;73.45
52927;BME280;40783;49.710;8.842;2023-09-08T09:34:20;99294.53;;;22.76;74.49
52927;BME280;40783;49.710;8.842;2023-09-08T09:36:46;99292.41;;;22.78;74.79
52927;BME280;40783;49.710;8.842;2023-09-08T09:39:15;99299.50;;;22.79;74.52
52927;BME280;40783;49.710;8.842;2023-09-08T09:41:41;99298.44;;;22.80;74.60
52927;BME280;40783;49.710;8.842;2023-09-08T09:44:06;99297.38;;;22.81;74.17
52927;BME280;40783;49.710;8.842;2023-09-08T09:46:33;99295.03;;;22.85;79.47
52927;BME280;40783;49.710;8.842;2023-09-08T09:49:01;99298.09;;;22.88;73.00
52927;BME280;40783;49.710;8.842;2023-09-08T09:51:26;99296.09;;;22.95;71.26
52927;BME280;40783;49.710;8.842;2023-09-08T09:53:54;99292.16;;;22.91;70.98
52927;BME280;40783;49.710;8.842;2023-09-08T09:56:19;99297.16;;;22.94;71.79
52927;BME280;40783;49.710;8.842;2023-09-08T09:58:47;99295.63;;;22.98;73.43
52927;BME280;40783;49.710;8.842;2023-09-08T10:01:13;99284.09;;;22.96;73.19
52927;BME280;40783;49.710;8.842;2023-09-08T10:03:39;99287.44;;;22.98;77.57
52927;BME280;40783;49.710;8.842;2023-09-08T10:06:06;99280.91;;;23.11;70.71
52927;BME280;40783;49.710;8.842;2023-09-08T10:08:35;99282.09;;;23.16;75.07
52927;BME280;40783;49.710;8.842;2023-09-08T10:11:05;99285.06;;;23.14;75.91
52927;BME280;40783;49.710;8.842;2023-09-08T10:13:31;99280.22;;;23.28;72.67
52927;BME280;40783;49.710;8.842;2023-09-08T10:15:58;99278.78;;;23.37;74.39
52927;BME280;40783;49.710;8.842;2023-09-08T10:18:24;99281.84;;;23.53;69.27
52927;BME280;40783;49.710;8.842;2023-09-08T10:20:50;99273.53;;;23.60;70.02
52927;BME280;40783;49.710;8.842;2023-09-08T10:23:21;99282.66;;;23.53;69.73
52927;BME280;40783;49.710;8.842;2023-09-08T10:25:50;99278.16;;;23.47;70.32
52927;BME280;40783;49.710;8.842;2023-09-08T10:28:19;99272.81;;;23.52;70.98
52927;BME280;40783;49.710;8.842;2023-09-08T10:30:44;99269.63;;;23.55;69.13
52927;BME280;40783;49.710;8.842;2023-09-08T10:33:10;99274.38;;;23.48;68.69
52927;BME280;40783;49.710;8.842;2023-09-08T10:35:36;99276.03;;;23.49;68.87
52927;BME280;40783;49.710;8.842;2023-09-08T10:40:46;99258.81;;;23.61;69.59
52927;BME280;40783;49.710;8.842;2023-09-08T10:43:11;99264.16;;;23.55;67.87
52927;BME280;40783;49.710;8.842;2023-09-08T10:45:36;99260.69;;;23.60;68.85
52927;BME280;40783;49.710;8.842;2023-09-08T10:48:02;99262.22;;;23.68;68.94
52927;BME280;40783;49.710;8.842;2023-09-08T10:50:31;99265.28;;;23.83;70.10
52927;BME280;40783;49.710;8.842;2023-09-08T10:53:07;99261.31;;;23.91;64.87
52927;BME280;40783;49.710;8.842;2023-09-08T10:55:43;99264.97;;;23.97;66.34
52927;BME280;40783;49.710;8.842;2023-09-08T10:58:16;99264.59;;;24.05;65.94
52927;BME280;40783;49.710;8.842;2023-09-08T11:00:45;99259.97;;;23.94;67.61
52927;BME280;40783;49.710;8.842;2023-09-08T11:03:11;99258.81;;;23.90;64.22
52927;BME280;40783;49.710;8.842;2023-09-08T11:05:36;99262.84;;;23.99;65.38
52927;BME280;40783;49.710;8.842;2023-09-08T11:08:01;99264.22;;;24.13;67.46
52927;BME280;40783;49.710;8.842;2023-09-08T11:10:28;99267.03;;;24.19;64.39
52927;BME280;40783;49.710;8.842;2023-09-08T11:12:55;99258.25;;;24.17;67.58
52927;BME280;40783;49.710;8.842;2023-09-08T11:15:20;99249.41;;;24.26;62.80
52927;BME280;40783;49.710;8.842;2023-09-08T11:17:48;99252.06;;;24.38;61.04
52927;BME280;40783;49.710;8.842;2023-09-08T11:20:25;99256.63;;;24.50;62.66
52927;BME280;40783;49.710;8.842;2023-09-08T11:22:50;99246.22;;;24.64;60.20
52927;BME280;40783;49.710;8.842;2023-09-08T11:25:15;99252.31;;;24.54;61.53
52927;BME280;40783;49.710;8.842;2023-09-08T11:27:43;99246.09;;;24.41;61.52
52927;BME280;40783;49.710;8.842;2023-09-08T11:30:11;99252.00;;;24.50;61.35
52927;BME280;40783;49.710;8.842;2023-09-08T11:32:37;99245.19;;;24.53;63.37
52927;BME280;40783;49.710;8.842;2023-09-08T11:35:03;99244.31;;;24.47;62.29
52927;BME280;40783;49.710;8.842;2023-09-08T11:37:29;99240.22;;;24.50;62.55
52927;BME280;40783;49.710;8.842;2023-09-08T11:39:54;99237.41;;;24.44;64.46
52927;BME280;40783;49.710;8.842;2023-09-08T11:42:20;99233.09;;;24.49;61.02
52927;BME280;40783;49.710;8.842;2023-09-08T11:44:46;99240.91;;;24.57;61.81
52927;BME280;40783;49.710;8.842;2023-09-08T11:47:12;99238.66;;;24.54;60.90
52927;BME280;40783;49.710;8.842;2023-09-08T11:49:38;99233.88;;;24.44;62.16
52927;BME280;40783;49.710;8.842;2023-09-08T11:52:03;99235.44;;;24.40;68.84
52927;BME280;40783;49.710;8.842;2023-09-08T11:54:29;99233.44;;;24.35;68.52
52927;BME280;40783;49.710;8.842;2023-09-08T11:56:56;99223.34;;;24.53;62.36
52927;BME280;40783;49.710;8.842;2023-09-08T11:59:21;99225.41;;;24.63;62.51
52927;BME280;40783;49.710;8.842;2023-09-08T12:01:46;99214.38;;;24.92;61.08
52927;BME280;40783;49.710;8.842;2023-09-08T12:04:18;99222.63;;;25.14;61.45
52927;BME280;40783;49.710;8.842;2023-09-08T12:06:45;99220.31;;;25.06;60.08
52927;BME280;40783;49.710;8.842;2023-09-08T12:09:12;99227.44;;;25.07;60.83
52927;BME280;40783;49.710;8.842;2023-09-08T12:11:38;99227.13;;;25.03;60.49
52927;BME280;40783;49.710;8.842;2023-09-08T12:14:07;99223.31;;;25.04;58.71
52927;BME280;40783;49.710;8.842;2023-09-08T12:16:34;99221.47;;;25.10;59.91
52927;BME280;40783;49.710;8.842;2023-09-08T12:19:00;99204.53;;;25.13;57.13
52927;BME280;40783;49.710;8.842;2023-09-08T12:21:25;99217.59;;;25.28;58.16
52927;BME280;40783;49.710;8.842;2023-09-08T12:23:51;99210.44;;;25.44;56.78
52927;BME280;40783;49.710;8.842;2023-09-08T12:26:16;99207.88;;;25.59;55.88
52927;BME280;40783;49.710;8.842;2023-09-08T12:28:42;99206.34;;;25.69;57.38
52927;BME280;40783;49.710;8.842;2023-09-08T12:31:10;99202.53;;;25.70;56.81
52927;BME280;40783;49.710;8.842;2023-09-08T12:33:35;99207.53;;;25.78;56.06
52927;BME280;40783;49.710;8.842;2023-09-08T12:36:09;99201.03;;;25.84;56.97
52927;BME280;40783;49.710;8.842;2023-09-08T12:38:35;99200.47;;;25.82;56.50
52927;BME280;40783;49.710;8.842;2023-09-08T12:41:01;99207.44;;;25.95;56.40
52927;BME280;40783;49.710;8.842;2023-09-08T12:43:26;99202.81;;;25.96;58.29
52927;BME280;40783;49.710;8.842;2023-09-08T12:45:51;99202.31;;;26.04;55.66
52927;BME280;40783;49.710;8.842;2023-09-08T12:48:19;99194.66;;;26.06;55.71
52927;BME280;40783;49.710;8.842;2023-09-08T12:50:47;99192.19;;;26.04;55.70
52927;BME280;40783;49.710;8.842;2023-09-08T12:53:16;99197.28;;;25.90;57.54
52927;BME280;40783;49.710;8.842;2023-09-08T12:55:44;99198.53;;;25.83;56.98
52927;BME280;40783;49.710;8.842;2023-09-08T12:58:10;99190.66;;;25.86;57.17
52927;BME280;40783;49.710;8.842;2023-09-08T13:00:35;99198.19;;;25.74;64.70
52927;BME280;40783;49.710;8.842;2023-09-08T13:03:00;99190.44;;;25.66;60.17
52927;BME280;40783;49.710;8.842;2023-09-08T13:05:27;99194.53;;;25.63;61.25